Latest Weather Observations for Mandurah

IDW60801

Issued at 10:33 am WST Monday 30 November 2020 (issued every 10 minutes, with the page automatically refreshed every 10 minutes)

About weather observations | Map of weather stations | Latest weather observations for WA | Other Formats
Station Details ID: 009977 Name: MANDURAH Lat: -32.52 Lon: 115.71 Height: 3.0 m
Data from the previous 72 hours. | See also: Recent months at Mandurah
Date/Time
WST
Temp
°C
App
Temp
°C
Dew
Point
°C
Rel
Hum
%
Delta-T
°C
Wind Press
QNH
hPa
Press
MSL
hPa
Rain since
9am
mm
Dir  Spd
km/h
Gust
km/h
Spd
kts
Gust
kts
30/10:30am 13.0 9.0 8.9 76 2.1 SSW 20 37 11 20 1015.6 1015.6 1.0
30/10:06am 13.8 7.3 9.0 73 2.4 SSW 33 57 18 31 1015.5 1015.5 0.4
30/10:03am 15.0 9.1 7.3 60 3.8 SSW 28 57 15 31 1015.4 1015.4 0.0
30/10:00am 15.5 10.4 7.5 59 4.0 SSW 24 46 13 25 1014.9 1014.9 0.0
30/09:30am 15.6 10.7 8.4 62 3.6 SSW 24 54 13 29 1014.4 1014.4 0.0
30/09:28am 15.7 11.2 8.4 62 3.7 SSW 22 54 12 29 1014.2 1014.2 0.0
30/09:00am 15.1 10.5 8.1 63 3.5 SSW 22 37 12 20 1013.9 1013.9 3.8
30/08:30am 15.4 10.9 8.6 64 3.5 SSW 22 39 12 21 1013.3 1013.3 3.2
30/08:00am 15.2 10.8 8.9 66 3.2 SSW 22 41 12 22 1012.6 1012.6 3.2
30/07:30am 15.7 10.9 7.5 58 4.1 SW 22 39 12 21 1012.1 1012.1 3.2
30/07:03am 14.7 9.2 9.1 69 2.9 SW 28 50 15 27 1011.7 1011.7 3.2
30/07:00am 15.1 10.3 9.0 67 3.1 SW 24 50 13 27 1011.6 1011.6 3.2
30/06:30am 14.7 10.5 7.5 62 3.6 SW 19 32 10 17 1011.2 1011.2 3.2
30/06:01am 15.9 10.0 7.4 57 4.2 SW 28 50 15 27 1010.4 1010.4 3.2
30/06:00am 15.9 10.0 7.7 58 4.1 SW 28 44 15 24 1010.4 1010.4 3.2
30/05:49am 15.5 9.6 7.5 59 4.0 SW 28 50 15 27 1010.3 1010.3 3.2
30/05:30am 15.6 9.7 7.4 58 4.1 SW 28 43 15 23 1009.9 1009.9 3.2
30/05:08am 15.8 9.3 8.1 60 3.9 SW 32 50 17 27 1009.3 1009.3 3.2
30/05:00am 15.9 9.1 7.9 59 4.0 SW 33 50 18 27 1009.3 1009.3 3.2
30/04:30am 15.9 9.2 8.2 60 3.9 WSW 33 65 18 35 1008.7 1008.7 3.2
30/04:02am 15.8 8.9 8.8 63 3.6 SW 35 56 19 30 1008.5 1008.5 3.2
30/04:00am 15.9 9.1 9.1 64 3.5 WSW 35 54 19 29 1008.4 1008.4 3.2
30/03:30am 14.9 9.1 9.5 70 2.8 SW 30 52 16 28 1008.0 1008.0 3.2
30/03:22am 14.3 9.2 10.5 78 2.0 SW 28 46 15 25 1008.0 1008.0 3.2
30/03:00am 15.2 12.2 12.7 85 1.4 WSW 20 37 11 20 1008.0 1008.0 1.0
30/02:39am 15.9 11.6 13.2 84 1.5 WSW 28 52 15 28 1007.8 1007.8 1.0
30/02:30am 16.2 11.9 13.1 82 1.7 WSW 28 44 15 24 1007.8 1007.8 1.0
30/02:00am 17.0 12.5 12.7 76 2.4 W 28 48 15 26 1007.5 1007.5 0.8
30/01:59am 17.0 12.5 12.7 76 2.4 W 28 48 15 26 1007.5 1007.5 0.8
30/01:30am 17.9 13.0 11.2 65 3.6 W 28 44 15 24 1007.4 1007.4 0.6
30/01:00am 17.5 13.0 10.1 62 3.9 W 24 35 13 19 1007.7 1007.7 0.6
30/12:30am 17.5 14.0 12.2 71 2.9 W 22 39 12 21 1007.9 1007.9 0.6
30/12:00am 17.6 13.3 13.1 75 2.5 W 28 35 15 19 1008.2 1008.2 0.6
 
Date/Time
WST
Temp
°C
App
Temp
°C
Dew
Point
°C
Rel
Hum
%
Delta-T
°C
Wind Press
QNH
hPa
Press
MSL
hPa
Rain since
9am
mm
Dir  Spd
km/h
Gust
km/h
Spd
kts
Gust
kts
29/11:30pm 17.3 14.6 12.8 75 2.5 W 19 35 10 19 1008.4 1008.4 0.6
29/11:00pm 17.3 13.5 12.4 73 2.7 W 24 33 13 18 1008.9 1008.9 0.6
29/10:30pm 16.8 13.7 13.3 80 2.0 W 22 35 12 19 1009.3 1009.3 0.6
29/10:04pm 17.3 13.3 14.0 81 1.9 WNW 28 48 15 26 1009.5 1009.5 0.6
29/10:00pm 17.2 14.3 12.9 76 2.4 WNW 20 39 11 21 1009.5 1009.5 0.6
29/09:30pm 16.8 13.2 11.9 73 2.7 WNW 22 30 12 16 1009.7 1009.7 0.6
29/09:00pm 16.4 12.8 12.9 80 1.9 W 24 32 13 17 1009.7 1009.7 0.6
29/08:42pm 17.4 13.1 13.3 77 2.3 W 28 50 15 27 1009.6 1009.6 0.2
29/08:30pm 17.4 14.0 11.2 67 3.4 W 20 32 11 17 1009.6 1009.6 0.2
29/08:00pm 17.4 14.6 11.2 67 3.4 W 17 22 9 12 1009.6 1009.6 0.2
29/07:30pm 16.9 15.2 11.2 69 3.1 W 11 19 6 10 1009.7 1009.7 0.2
29/07:00pm 16.8 15.1 11.1 69 3.1 WSW 11 22 6 12 1009.6 1009.6 0.2
29/06:30pm 16.8 14.5 10.6 67 3.3 W 13 20 7 11 1009.8 1009.8 0.2
29/06:00pm 16.8 14.5 10.6 67 3.3 W 13 20 7 11 1009.9 1009.9 0.2
29/05:30pm 16.5 14.1 10.1 66 3.4 WSW 13 20 7 11 1009.6 1009.6 0.2
29/05:00pm 17.1 15.7 12.2 73 2.7 SW 11 17 6 9 1009.8 1009.8 0.2
29/04:30pm 17.2 15.1 12.3 73 2.7 SW 15 24 8 13 1009.8 1009.8 0.2
29/04:00pm 18.0 16.1 11.8 67 3.4 SW 13 20 7 11 1009.7 1009.7 0.0
29/03:30pm 18.3 15.0 9.6 57 4.6 SW 17 26 9 14 1009.5 1009.5 0.0
29/03:00pm 19.1 15.4 10.1 56 4.8 WSW 20 33 11 18 1009.5 1009.5 0.0
29/02:30pm 20.3 18.0 10.4 53 5.4 SW 13 22 7 12 1009.6 1009.6 0.0
29/02:00pm 20.3 17.6 10.4 53 5.4 SW 15 30 8 16 1010.2 1010.2 0.0
29/01:30pm 19.9 17.1 11.4 58 4.7 SW 17 32 9 17 1011.0 1011.0 0.0
29/01:00pm 18.2 14.6 10.6 61 4.1 SW 20 32 11 17 1011.3 1011.3 0.0
29/12:30pm 18.9 16.2 10.5 58 4.5 SW 15 24 8 13 1011.6 1011.6 0.0
29/12:00pm 18.9 15.9 10.5 58 4.5 SSW 17 26 9 14 1011.3 1011.3 0.0
29/11:30am 19.3 16.8 12.3 64 3.9 SW 17 28 9 15 1011.3 1011.3 0.0
29/11:00am 19.4 16.3 11.7 61 4.3 SW 19 28 10 15 1011.6 1011.6 0.0
29/10:30am 19.9 17.4 11.1 57 4.8 WSW 15 24 8 13 1011.3 1011.3 0.0
29/10:00am 20.4 18.0 10.2 52 5.5 W 13 20 7 11 1011.5 1011.5 0.0
29/09:30am 19.4 17.5 10.4 56 4.8 W 11 15 6 8 1011.4 1011.4 0.0
29/09:00am 19.5 18.2 10.0 54 5.1 WSW 7 9 4 5 1011.7 1011.7 0.0
29/08:30am 18.9 18.4 9.4 54 5.0 SSW 2 6 1 3 1011.7 1011.7 0.0
29/08:00am 18.3 17.5 9.6 57 4.6 SSW 4 6 2 3 1012.1 1012.1 0.0
29/07:30am 17.8 16.7 9.9 60 4.2 SSW 6 6 3 3 1012.0 1012.0 0.0
29/07:00am 17.0 15.7 9.2 60 4.0 SSW 6 9 3 5 1012.4 1012.4 0.0
29/06:30am 16.9 16.5 9.6 62 3.8 SSW 2 4 1 2 1012.5 1012.5 0.0
29/06:00am 16.2 15.3 9.4 64 3.5 SSW 4 6 2 3 1012.4 1012.4 0.0
29/05:30am 16.3 15.0 9.3 63 3.6 SSW 6 7 3 4 1012.2 1012.2 0.0
29/05:00am 15.1 14.7 8.1 63 3.5 CALM 0 0 0 0 1011.9 1011.9 0.0
29/04:30am 15.4 13.9 8.4 63 3.5 SE 6 7 3 4 1011.3 1011.3 0.0
29/04:00am 15.4 14.1 9.1 66 3.2 SSE 6 7 3 4 1011.2 1011.2 0.0
29/03:30am 15.5 13.6 9.2 66 3.2 SSE 9 13 5 7 1011.4 1011.4 0.0
29/03:00am 15.7 13.6 9.6 67 3.2 SSE 11 17 6 9 1011.8 1011.8 0.0
29/02:30am 15.8 13.7 9.7 67 3.2 SSE 11 19 6 10 1012.0 1012.0 0.0
29/02:00am 15.8 13.0 9.9 68 3.1 SSE 15 20 8 11 1012.3 1012.3 0.0
29/01:30am 16.1 12.9 9.8 66 3.3 SE 17 24 9 13 1012.6 1012.6 0.0
29/01:00am 16.4 13.4 9.3 63 3.7 SSE 15 22 8 12 1013.6 1013.6 0.0
29/12:30am 16.8 13.5 9.5 62 3.8 S 17 24 9 13 1014.3 1014.3 0.0
29/12:00am 16.9 13.6 9.6 62 3.8 S 17 22 9 12 1014.6 1014.6 0.0
 
Date/Time
WST
Temp
°C
App
Temp
°C
Dew
Point
°C
Rel
Hum
%
Delta-T
°C
Wind Press
QNH
hPa
Press
MSL
hPa
Rain since
9am
mm
Dir  Spd
km/h
Gust
km/h
Spd
kts
Gust
kts
28/11:30pm 16.9 14.3 9.3 61 3.9 S 13 20 7 11 1015.1 1015.1 0.0
28/11:00pm 16.9 13.5 9.1 60 4.0 S 17 24 9 13 1015.4 1015.4 0.0
28/10:30pm 17.4 13.3 8.8 57 4.4 S 20 30 11 16 1015.5 1015.5 0.0
28/10:00pm 18.2 14.2 9.0 55 4.8 S 20 30 11 16 1015.6 1015.6 0.0
28/09:30pm 18.3 16.2 11.1 63 3.9 SSW 13 24 7 13 1015.6 1015.6 0.0
28/09:00pm 18.0 16.3 11.3 65 3.6 SSW 11 22 6 12 1015.8 1015.8 0.0
28/08:30pm 17.8 15.3 11.1 65 3.6 SSW 15 24 8 13 1016.0 1016.0 0.0
28/08:00pm 17.9 15.0 11.0 64 3.7 SSW 17 28 9 15 1016.0 1016.0 0.0
28/07:30pm 18.1 15.5 10.7 62 4.0 SSW 15 22 8 12 1016.1 1016.1 0.0
28/07:00pm 18.2 15.2 10.8 62 4.0 SSW 17 26 9 14 1016.2 1016.2 0.0
28/06:30pm 18.6 15.0 9.9 57 4.6 SSW 19 30 10 16 1015.9 1015.9 0.0
28/06:00pm 19.1 16.0 10.4 57 4.7 SSW 17 28 9 15 1016.1 1016.1 0.0
28/05:30pm 19.3 15.4 9.5 53 5.2 SSW 20 32 11 17 1016.2 1016.2 0.0
28/05:00pm 20.0 16.3 9.6 51 5.5 SSW 19 32 10 17 1016.2 1016.2 0.0
28/04:30pm 20.1 16.1 9.1 49 5.8 SW 20 32 11 17 1016.3 1016.3 0.0
28/04:00pm 20.5 16.4 8.5 46 6.3 SSW 20 32 11 17 1016.3 1016.3 0.0
28/03:30pm 20.5 16.1 7.5 43 6.7 SSW 20 35 11 19 1016.5 1016.5 0.0
28/03:00pm 20.8 16.4 7.4 42 6.9 SSW 20 32 11 17 1016.7 1016.7 0.0
28/02:30pm 20.7 15.6 7.7 43 6.7 WSW 24 37 13 20 1017.0 1017.0 0.0
28/02:00pm 20.4 15.3 7.7 44 6.5 WSW 24 37 13 20 1017.3 1017.3 0.0
28/01:30pm 20.4 15.6 7.4 43 6.7 SW 22 35 12 19 1017.4 1017.4 0.0
28/01:00pm 20.2 14.7 7.6 44 6.5 WSW 26 41 14 22 1017.7 1017.7 0.0
28/12:30pm 20.5 15.4 7.5 43 6.7 WSW 24 39 13 21 1018.1 1018.1 0.0
28/12:00pm 20.8 16.6 8.4 45 6.5 SW 20 33 11 18 1018.3 1018.3 0.0
28/11:30am 20.2 17.3 4.7 36 7.5 SSE 9 15 5 8 1018.8 1018.8 0.0
28/11:00am 20.1 16.6 5.4 38 7.2 SSW 13 24 7 13 1019.0 1019.0 0.0
28/10:30am 19.4 15.4 4.7 38 7.1 SSE 15 22 8 12 1018.9 1018.9 0.0
28/10:00am 19.2 16.2 6.0 42 6.5 SSE 11 19 6 10 1019.3 1019.3 0.0
28/09:30am 18.1 14.4 6.3 46 5.8 S 15 22 8 12 1019.7 1019.7 0.0
28/09:00am 17.5 13.8 6.4 48 5.4 SSE 15 22 8 12 1020.1 1020.1 0.2
28/08:30am 16.9 13.3 6.7 51 5.0 SSE 15 20 8 11 1020.1 1020.1 0.2
28/08:00am 16.3 12.8 7.0 54 4.6 SSE 15 20 8 11 1020.2 1020.2 0.2
28/07:30am 15.2 12.1 7.3 59 3.9 SE 13 20 7 11 1020.2 1020.2 0.2
28/07:00am 14.3 11.7 7.6 64 3.3 SE 11 15 6 8 1020.0 1020.0 0.2
28/06:30am 13.4 11.7 8.5 72 2.4 SSE 7 11 4 6 1019.8 1019.8 0.2
28/06:00am 13.0 11.1 8.9 76 2.1 SE 9 11 5 6 1019.7 1019.7 0.2
28/05:30am 12.8 10.5 8.9 77 2.0 SSE 11 15 6 8 1019.1 1019.1 0.2
28/05:00am 13.2 10.5 9.1 76 2.1 SE 13 19 7 10 1018.9 1018.9 0.2
28/04:30am 13.6 10.9 9.1 74 2.3 SE 13 19 7 10 1018.5 1018.5 0.2
28/04:00am 13.8 11.5 9.0 73 2.4 SSE 11 19 6 10 1018.2 1018.2 0.2
28/03:30am 14.1 11.8 8.9 71 2.6 SSE 11 20 6 11 1018.2 1018.2 0.2
28/03:00am 14.3 11.5 8.7 69 2.8 SSE 13 20 7 11 1018.1 1018.1 0.2
28/02:30am 14.4 11.1 8.1 66 3.1 SSE 15 20 8 11 1017.9 1017.9 0.2
28/02:00am 14.6 11.4 8.3 66 3.2 SE 15 20 8 11 1017.8 1017.8 0.2
28/01:30am 14.9 12.1 8.4 65 3.3 SSE 13 20 7 11 1018.1 1018.1 0.2
28/01:00am 15.1 11.9 8.3 64 3.4 SSE 15 22 8 12 1018.2 1018.2 0.2
28/12:30am 15.4 11.7 7.9 61 3.8 SSE 17 24 9 13 1018.2 1018.2 0.2
28/12:00am 15.6 11.6 8.1 61 3.8 SSE 19 28 10 15 1018.4 1018.4 0.2
 
Date/Time
WST
Temp
°C
App
Temp
°C
Dew
Point
°C
Rel
Hum
%
Delta-T
°C
Wind Press
QNH
hPa
Press
MSL
hPa
Rain since
9am
mm
Dir  Spd
km/h
Gust
km/h
Spd
kts
Gust
kts
27/11:30pm 16.0 12.4 8.5 61 3.8 SSE 17 24 9 13 1018.4 1018.4 0.2
27/11:00pm 16.6 12.9 9.3 62 3.8 S 19 32 10 17 1018.4 1018.4 0.2
27/10:30pm 17.0 13.8 8.4 57 4.4 SSW 15 24 8 13 1018.3 1018.3 0.2
27/10:00pm 17.1 13.9 8.5 57 4.4 S 15 26 8 14 1018.2 1018.2 0.2
27/09:30pm 17.2 13.2 8.4 56 4.5 SSW 19 28 10 15 1017.9 1017.9 0.2
27/09:00pm 17.5 13.8 9.4 59 4.2 SSW 19 32 10 17 1017.5 1017.5 0.2
27/08:30pm 17.5 13.2 9.4 59 4.2 SSW 22 35 12 19 1017.1 1017.1 0.2
27/08:00pm 17.9 14.0 8.7 55 4.7 SSW 19 32 10 17 1016.6 1016.6 0.2
27/07:30pm 17.9 14.3 9.8 59 4.3 SSW 19 35 10 19 1016.4 1016.4 0.2
27/07:00pm 18.0 14.8 9.9 59 4.3 SSW 17 24 9 13 1016.1 1016.1 0.2
27/06:30pm 18.4 14.6 9.2 55 4.8 SSW 19 33 10 18 1015.8 1015.8 0.2
27/06:00pm 18.9 14.9 9.1 53 5.1 SSW 20 35 11 19 1015.6 1015.6 0.2
27/05:30pm 19.1 15.1 10.6 58 4.6 SSW 22 35 12 19 1015.4 1015.4 0.2
27/05:00pm 19.5 16.5 10.8 57 4.7 SSW 17 28 9 15 1015.3 1015.3 0.2
27/04:30pm 19.9 16.4 12.2 61 4.3 SW 22 33 12 18 1015.2 1015.2 0.2
27/04:00pm 20.4 17.4 12.4 60 4.5 SW 20 33 11 18 1015.0 1015.0 0.2
27/03:30pm 20.2 16.3 13.4 65 3.9 SW 26 46 14 25 1014.9 1014.9 0.2
27/03:00pm 20.0 15.9 11.5 58 4.7 SW 24 41 13 22 1014.7 1014.7 0.2
27/02:30pm 21.2 18.4 12.6 58 4.9 WSW 19 30 10 16 1014.8 1014.8 0.2
27/02:00pm 20.4 18.7 12.6 61 4.4 WNW 13 20 7 11 1015.0 1015.0 0.2
27/01:30pm 21.1 18.7 12.8 59 4.7 W 17 24 9 13 1015.1 1015.1 0.2
27/01:00pm 21.2 19.4 12.1 56 5.1 NW 13 19 7 10 1015.1 1015.1 0.2
27/12:30pm 21.8 20.1 12.4 55 5.3 WNW 13 20 7 11 1015.4 1015.4 0.2
27/12:00pm 21.8 20.4 12.1 54 5.5 W 11 17 6 9 1015.5 1015.5 0.2
27/11:30am 21.6 20.5 13.0 58 4.9 WNW 11 17 6 9 1015.8 1015.8 0.2
27/11:00am 19.9 17.6 11.9 60 4.4 WNW 15 19 8 10 1015.9 1015.9 0.2

Other formats

Comma delimited format used in spreadsheet applications
http://www.bom.gov.au/fwo/IDW60801/IDW60801.94605.axf

JavaScript Object Notation format (JSON) in row-major order
http://www.bom.gov.au/fwo/IDW60801/IDW60801.94605.json

Data quality

Most of these data are generated automatically and are frequently updated. Quality checks on data are not normally performed. It is possible for incorrect values to appear. Refer to information at About Latest Weather Observations and please check the disclaimer before using these data.